Millers River @ Athol, Ma

Millers River at Athol
 Total Drainage Area: 280 sq. miles 
 Drainage Area Controlled by Corps Dams: 225 sq. miles (80%) 
 Warning Flow/Stage: ?? cfs / 2.5 feet 
 Flood Flow/Stage: ?? cfs / 3.3 feet 
Date Time
(Eastern)
Stage
(ft)
Flow
(cfs)
CSM
(cfs / sq. mi.)
Jun-25 12:30 am -2.99 396 1.4
Jun-24 11:30 pm -2.98 398 1.4
Jun-24 10:30 pm -2.97 401 1.4
Jun-24 09:30 pm -2.97 401 1.4
Jun-24 08:30 pm -2.96 403 1.4
Jun-24 07:30 pm -2.96 403 1.4
Jun-24 06:30 pm -2.95 406 1.5
Jun-24 05:30 pm -2.94 408 1.5
Jun-24 04:30 pm -2.92 413 1.5
Jun-24 03:30 pm -2.90 419 1.5
Jun-24 02:30 pm -2.89 421 1.5
Jun-24 01:30 pm -2.87 426 1.5
Jun-24 12:30 pm -2.85 431 1.5
Jun-24 11:30 am -2.83 437 1.6
Jun-24 10:30 am -2.78 449 1.6
Jun-24 09:30 am -2.85 431 1.5
Jun-24 08:30 am -3.04 384 1.4
Jun-24 07:30 am -2.77 452 1.6
Jun-24 06:30 am -2.75 457 1.6
Jun-24 05:30 am -2.74 460 1.6
Jun-24 04:30 am -2.73 462 1.7
Jun-24 03:30 am -2.72 465 1.7
Jun-24 02:30 am -2.71 467 1.7
Jun-24 01:30 am -2.70 470 1.7
Jun-24 12:30 am -2.69 472 1.7
Report Generated June 25, 2024 05:29 am